Terminal Aerodrome Forecast
Issued by NWS Paducah, KY

Home | Current Version | Previous Version | Text Only | Print | Product List | Glossary On
Versions: 1 2 3 4 5 6 7 8 9 10 11 12 13 14 15 16 17 18 19 20 21 22 23 24
000
FTUS43 KPAH 250114 AAB
TAFPAH
TAF AMD
KPAH 250114Z 2501/2524 VRB10G20KT 2SM TSRA BKN040CB
     FM250200 VRB03KT P6SM SCT150
     FM251000 00000KT 5SM BR SCT250
     FM251400 10006KT P6SM SCT050=

USA.gov is the U.S. government's official web portal to all federal, state and local government web resources and services.